sensor_id;sensor_type;location;lat;lon;timestamp;pressure;altitude;pressure_sealevel;temperature;humidity
64853;BME280;56050;55.558;-4.644;2023-08-24T00:00:51;101365.09;;;18.53;64.14
64853;BME280;56050;55.558;-4.644;2023-08-24T00:03:17;101374.84;;;18.54;64.36
64853;BME280;56050;55.558;-4.644;2023-08-24T00:05:42;101369.81;;;18.53;64.18
64853;BME280;56050;55.558;-4.644;2023-08-24T00:08:09;101367.09;;;18.53;64.48
64853;BME280;56050;55.558;-4.644;2023-08-24T00:10:35;101359.66;;;18.53;64.25
64853;BME280;56050;55.558;-4.644;2023-08-24T00:13:01;101358.91;;;18.53;64.29
64853;BME280;56050;55.558;-4.644;2023-08-24T00:15:27;101363.59;;;18.52;64.18
64853;BME280;56050;55.558;-4.644;2023-08-24T00:17:52;101369.03;;;18.52;64.18
64853;BME280;56050;55.558;-4.644;2023-08-24T00:20:18;101366.31;;;18.52;64.37
64853;BME280;56050;55.558;-4.644;2023-08-24T00:22:45;101363.59;;;18.52;64.35
64853;BME280;56050;55.558;-4.644;2023-08-24T00:25:11;101356.59;;;18.51;64.25
64853;BME280;56050;55.558;-4.644;2023-08-24T00:27:37;101353.09;;;18.51;64.55
64853;BME280;56050;55.558;-4.644;2023-08-24T00:30:03;101349.56;;;18.50;64.50
64853;BME280;56050;55.558;-4.644;2023-08-24T00:32:34;101349.56;;;18.50;64.23
64853;BME280;56050;55.558;-4.644;2023-08-24T00:35:04;101345.34;;;18.49;64.48
64853;BME280;56050;55.558;-4.644;2023-08-24T00:37:31;101343.38;;;18.50;64.27
64853;BME280;56050;55.558;-4.644;2023-08-24T00:39:57;101345.34;;;18.49;64.32
64853;BME280;56050;55.558;-4.644;2023-08-24T00:42:22;101344.56;;;18.49;64.38
64853;BME280;56050;55.558;-4.644;2023-08-24T00:44:49;101338.34;;;18.48;64.41
64853;BME280;56050;55.558;-4.644;2023-08-24T00:47:15;101334.06;;;18.47;64.45
64853;BME280;56050;55.558;-4.644;2023-08-24T00:49:41;101339.09;;;18.49;64.36
64853;BME280;56050;55.558;-4.644;2023-08-24T00:52:07;101341.06;;;18.48;64.60
64853;BME280;56050;55.558;-4.644;2023-08-24T00:54:32;101340.69;;;18.46;64.45
64853;BME280;56050;55.558;-4.644;2023-08-24T00:56:58;101346.16;;;18.46;64.35
64853;BME280;56050;55.558;-4.644;2023-08-24T00:59:23;101327.06;;;18.46;64.50
64853;BME280;56050;55.558;-4.644;2023-08-24T01:01:50;101333.69;;;18.45;64.80
64853;BME280;56050;55.558;-4.644;2023-08-24T01:04:16;101339.16;;;18.45;64.65
64853;BME280;56050;55.558;-4.644;2023-08-24T01:06:41;101333.69;;;18.45;64.63
64853;BME280;56050;55.558;-4.644;2023-08-24T01:09:07;101338.38;;;18.45;64.55
64853;BME280;56050;55.558;-4.644;2023-08-24T01:17:26;101354.91;;;18.38;64.92
64853;BME280;56050;55.558;-4.644;2023-08-24T01:19:54;101351.06;;;18.19;65.21
64853;BME280;56050;55.558;-4.644;2023-08-24T01:22:34;101351.97;;;17.93;65.66
64853;BME280;56050;55.558;-4.644;2023-08-24T01:25:12;101352.56;;;17.65;65.72
64853;BME280;56050;55.558;-4.644;2023-08-24T01:27:41;101351.03;;;17.40;66.21
64853;BME280;56050;55.558;-4.644;2023-08-24T01:30:08;101367.03;;;17.15;66.75
64853;BME280;56050;55.558;-4.644;2023-08-24T01:32:34;101360.00;;;16.94;67.37
64853;BME280;56050;55.558;-4.644;2023-08-24T01:35:05;101364.53;;;16.78;67.66
64853;BME280;56050;55.558;-4.644;2023-08-24T01:37:32;101364.41;;;16.62;67.70
64853;BME280;56050;55.558;-4.644;2023-08-24T01:42:26;101363.22;;;16.32;68.45
64853;BME280;56050;55.558;-4.644;2023-08-24T01:44:56;101366.50;;;16.20;68.72
64853;BME280;56050;55.558;-4.644;2023-08-24T01:47:24;101358.88;;;16.08;68.81
64853;BME280;56050;55.558;-4.644;2023-08-24T01:49:51;101357.09;;;15.98;69.01
64853;BME280;56050;55.558;-4.644;2023-08-24T01:52:17;101359.88;;;15.91;69.25
64853;BME280;56050;55.558;-4.644;2023-08-24T01:54:43;101354.88;;;15.90;69.20
64853;BME280;56050;55.558;-4.644;2023-08-24T01:57:10;101352.53;;;15.88;69.07
64853;BME280;56050;55.558;-4.644;2023-08-24T01:59:35;101350.22;;;15.86;69.26
64853;BME280;56050;55.558;-4.644;2023-08-24T02:02:01;101349.88;;;15.84;69.30
64853;BME280;56050;55.558;-4.644;2023-08-24T02:04:26;101347.16;;;15.84;69.27
64853;BME280;56050;55.558;-4.644;2023-08-24T02:06:51;101348.69;;;15.85;69.29
64853;BME280;56050;55.558;-4.644;2023-08-24T02:09:17;101356.81;;;15.89;69.15
64853;BME280;56050;55.558;-4.644;2023-08-24T02:11:42;101344.69;;;15.94;69.10
64853;BME280;56050;55.558;-4.644;2023-08-24T02:14:08;101348.16;;;15.98;69.00
64853;BME280;56050;55.558;-4.644;2023-08-24T02:16:33;101345.03;;;15.99;68.88
64853;BME280;56050;55.558;-4.644;2023-08-24T02:18:58;101353.56;;;16.01;68.85
64853;BME280;56050;55.558;-4.644;2023-08-24T02:21:24;101349.28;;;16.00;68.94
64853;BME280;56050;55.558;-4.644;2023-08-24T02:23:49;101353.56;;;16.01;69.06
64853;BME280;56050;55.558;-4.644;2023-08-24T02:26:15;101343.81;;;16.04;69.00
64853;BME280;56050;55.558;-4.644;2023-08-24T02:28:40;101349.59;;;16.06;68.89
64853;BME280;56050;55.558;-4.644;2023-08-24T02:31:06;101346.84;;;16.09;68.61
64853;BME280;56050;55.558;-4.644;2023-08-24T02:33:31;101344.50;;;16.11;68.81
64853;BME280;56050;55.558;-4.644;2023-08-24T02:35:57;101355.69;;;16.17;68.69
64853;BME280;56050;55.558;-4.644;2023-08-24T02:38:23;101349.06;;;16.18;68.75
64853;BME280;56050;55.558;-4.644;2023-08-24T02:40:49;101351.34;;;16.23;68.50
64853;BME280;56050;55.558;-4.644;2023-08-24T02:43:14;101349.38;;;16.23;68.53
64853;BME280;56050;55.558;-4.644;2023-08-24T02:45:40;101359.84;;;16.25;68.64
64853;BME280;56050;55.558;-4.644;2023-08-24T02:48:05;101345.06;;;16.26;68.64
64853;BME280;56050;55.558;-4.644;2023-08-24T02:50:31;101347.78;;;16.26;68.37
64853;BME280;56050;55.558;-4.644;2023-08-24T02:52:56;101348.56;;;16.26;68.18
64853;BME280;56050;55.558;-4.644;2023-08-24T02:55:24;101345.84;;;16.26;68.36
64853;BME280;56050;55.558;-4.644;2023-08-24T02:57:49;101335.69;;;16.30;68.38
64853;BME280;56050;55.558;-4.644;2023-08-24T03:00:15;101345.75;;;16.33;68.41
64853;BME280;56050;55.558;-4.644;2023-08-24T03:02:41;101346.06;;;16.39;68.21
64853;BME280;56050;55.558;-4.644;2023-08-24T03:05:07;101341.69;;;16.45;68.09
64853;BME280;56050;55.558;-4.644;2023-08-24T03:07:32;101344.38;;;16.49;67.86
64853;BME280;56050;55.558;-4.644;2023-08-24T03:09:58;101334.63;;;16.51;68.05
64853;BME280;56050;55.558;-4.644;2023-08-24T03:12:23;101327.63;;;16.54;68.10
64853;BME280;56050;55.558;-4.644;2023-08-24T03:14:51;101327.16;;;16.59;67.90
64853;BME280;56050;55.558;-4.644;2023-08-24T03:17:18;101329.81;;;16.62;67.91
64853;BME280;56050;55.558;-4.644;2023-08-24T03:19:43;101331.34;;;16.63;67.79
64853;BME280;56050;55.558;-4.644;2023-08-24T03:22:09;101337.66;;;16.57;67.70
64853;BME280;56050;55.558;-4.644;2023-08-24T03:24:34;101339.50;;;16.36;67.82
64853;BME280;56050;55.558;-4.644;2023-08-24T03:26:59;101326.56;;;16.17;68.11
64853;BME280;56050;55.558;-4.644;2023-08-24T03:29:25;101320.88;;;16.05;68.60
64853;BME280;56050;55.558;-4.644;2023-08-24T03:31:50;101323.66;;;16.01;68.66
64853;BME280;56050;55.558;-4.644;2023-08-24T03:34:16;101323.28;;;15.99;68.48
64853;BME280;56050;55.558;-4.644;2023-08-24T03:36:41;101326.00;;;15.99;68.75
64853;BME280;56050;55.558;-4.644;2023-08-24T03:39:07;101329.81;;;16.05;68.43
64853;BME280;56050;55.558;-4.644;2023-08-24T03:41:32;101330.47;;;16.13;68.24
64853;BME280;56050;55.558;-4.644;2023-08-24T03:43:59;101328.84;;;16.19;68.25
64853;BME280;56050;55.558;-4.644;2023-08-24T03:46:24;101323.38;;;16.22;67.62
64853;BME280;56050;55.558;-4.644;2023-08-24T03:48:49;101321.00;;;16.24;67.86
64853;BME280;56050;55.558;-4.644;2023-08-24T03:51:15;101325.63;;;16.27;67.59
64853;BME280;56050;55.558;-4.644;2023-08-24T03:53:40;101322.91;;;16.27;67.38
64853;BME280;56050;55.558;-4.644;2023-08-24T03:56:06;101320.53;;;16.29;67.54
64853;BME280;56050;55.558;-4.644;2023-08-24T03:58:31;101328.66;;;16.33;67.37
64853;BME280;56050;55.558;-4.644;2023-08-24T04:00:57;101317.72;;;16.36;67.30
64853;BME280;56050;55.558;-4.644;2023-08-24T04:03:22;101319.28;;;16.37;67.54
64853;BME280;56050;55.558;-4.644;2023-08-24T04:05:48;101313.41;;;16.39;67.59
64853;BME280;56050;55.558;-4.644;2023-08-24T04:08:13;101316.13;;;16.39;67.39
64853;BME280;56050;55.558;-4.644;2023-08-24T04:10:38;101314.59;;;16.38;67.55
64853;BME280;56050;55.558;-4.644;2023-08-24T04:13:04;101322.00;;;16.37;67.40
64853;BME280;56050;55.558;-4.644;2023-08-24T04:15:29;101316.50;;;16.41;67.51
64853;BME280;56050;55.558;-4.644;2023-08-24T04:17:55;101315.31;;;16.42;67.32
64853;BME280;56050;55.558;-4.644;2023-08-24T04:20:20;101314.53;;;16.41;67.54
64853;BME280;56050;55.558;-4.644;2023-08-24T04:22:46;101314.16;;;16.43;67.64
64853;BME280;56050;55.558;-4.644;2023-08-24T04:25:11;101317.25;;;16.41;67.56
64853;BME280;56050;55.558;-4.644;2023-08-24T04:27:37;101305.25;;;16.39;67.65
64853;BME280;56050;55.558;-4.644;2023-08-24T04:30:02;101303.78;;;16.34;67.50
64853;BME280;56050;55.558;-4.644;2023-08-24T04:32:28;101302.69;;;16.28;67.67
64853;BME280;56050;55.558;-4.644;2023-08-24T04:34:53;101299.31;;;16.21;67.61
64853;BME280;56050;55.558;-4.644;2023-08-24T04:37:19;101300.97;;;16.15;67.88
64853;BME280;56050;55.558;-4.644;2023-08-24T04:39:44;101294.44;;;16.09;68.17
64853;BME280;56050;55.558;-4.644;2023-08-24T04:42:10;101292.94;;;16.04;67.92
64853;BME280;56050;55.558;-4.644;2023-08-24T04:44:35;101287.94;;;15.99;68.00
64853;BME280;56050;55.558;-4.644;2023-08-24T04:47:00;101294.28;;;15.93;68.43
64853;BME280;56050;55.558;-4.644;2023-08-24T04:49:26;101292.00;;;15.88;68.11
64853;BME280;56050;55.558;-4.644;2023-08-24T04:51:51;101297.13;;;15.82;68.36
64853;BME280;56050;55.558;-4.644;2023-08-24T04:54:17;101304.53;;;15.78;68.31
64853;BME280;56050;55.558;-4.644;2023-08-24T04:56:42;101301.13;;;15.74;68.44
64853;BME280;56050;55.558;-4.644;2023-08-24T04:59:08;101305.00;;;15.73;68.29
64853;BME280;56050;55.558;-4.644;2023-08-24T05:01:34;101299.59;;;15.69;68.53
64853;BME280;56050;55.558;-4.644;2023-08-24T05:04:00;101298.47;;;15.67;68.27
64853;BME280;56050;55.558;-4.644;2023-08-24T05:06:25;101293.84;;;15.64;68.30
64853;BME280;56050;55.558;-4.644;2023-08-24T05:08:51;101297.38;;;15.61;68.34
64853;BME280;56050;55.558;-4.644;2023-08-24T05:11:18;101299.72;;;15.59;68.19
64853;BME280;56050;55.558;-4.644;2023-08-24T05:13:44;101295.88;;;15.56;68.17
64853;BME280;56050;55.558;-4.644;2023-08-24T05:16:10;101302.91;;;15.54;68.35
64853;BME280;56050;55.558;-4.644;2023-08-24T05:18:35;101305.63;;;15.50;68.23
64853;BME280;56050;55.558;-4.644;2023-08-24T05:21:04;101305.66;;;15.47;68.34
64853;BME280;56050;55.558;-4.644;2023-08-24T05:23:30;101307.22;;;15.44;68.63
64853;BME280;56050;55.558;-4.644;2023-08-24T05:25:57;101307.22;;;15.44;68.62
64853;BME280;56050;55.558;-4.644;2023-08-24T05:28:24;101306.88;;;15.42;68.39
64853;BME280;56050;55.558;-4.644;2023-08-24T05:30:54;101304.94;;;15.43;68.33
64853;BME280;56050;55.558;-4.644;2023-08-24T05:33:20;101301.03;;;15.44;68.37
64853;BME280;56050;55.558;-4.644;2023-08-24T05:35:46;101301.78;;;15.44;68.57
64853;BME280;56050;55.558;-4.644;2023-08-24T05:38:12;101300.25;;;15.47;68.33
64853;BME280;56050;55.558;-4.644;2023-08-24T05:40:38;101295.59;;;15.47;68.27
64853;BME280;56050;55.558;-4.644;2023-08-24T05:43:04;101302.97;;;15.47;68.43
64853;BME280;56050;55.558;-4.644;2023-08-24T05:45:29;101298.31;;;15.47;68.20
64853;BME280;56050;55.558;-4.644;2023-08-24T05:47:55;101296.38;;;15.48;68.19
64853;BME280;56050;55.558;-4.644;2023-08-24T05:50:20;101294.41;;;15.48;68.36
64853;BME280;56050;55.558;-4.644;2023-08-24T05:52:46;101293.66;;;15.48;68.17
64853;BME280;56050;55.558;-4.644;2023-08-24T05:55:11;101291.72;;;15.48;68.46
64853;BME280;56050;55.558;-4.644;2023-08-24T05:57:37;101290.16;;;15.47;68.22
64853;BME280;56050;55.558;-4.644;2023-08-24T06:00:03;101293.25;;;15.46;68.17
64853;BME280;56050;55.558;-4.644;2023-08-24T06:02:34;101297.91;;;15.45;68.46
64853;BME280;56050;55.558;-4.644;2023-08-24T06:04:59;101292.09;;;15.47;68.61
64853;BME280;56050;55.558;-4.644;2023-08-24T06:07:25;101301.41;;;15.46;68.63
64853;BME280;56050;55.558;-4.644;2023-08-24T06:09:50;101294.06;;;15.43;68.66
64853;BME280;56050;55.558;-4.644;2023-08-24T06:12:16;101286.31;;;15.41;68.74
64853;BME280;56050;55.558;-4.644;2023-08-24T06:14:41;101294.06;;;15.43;68.76
64853;BME280;56050;55.558;-4.644;2023-08-24T06:17:06;101295.59;;;15.47;68.53
64853;BME280;56050;55.558;-4.644;2023-08-24T06:19:32;101301.41;;;15.49;68.41
64853;BME280;56050;55.558;-4.644;2023-08-24T06:21:57;101289.34;;;15.50;68.44
64853;BME280;56050;55.558;-4.644;2023-08-24T06:24:22;101304.84;;;15.53;68.63
64853;BME280;56050;55.558;-4.644;2023-08-24T06:26:48;101294.72;;;15.57;68.71
64853;BME280;56050;55.558;-4.644;2023-08-24T06:29:13;101299.69;;;15.62;68.25
64853;BME280;56050;55.558;-4.644;2023-08-24T06:31:39;101294.16;;;15.69;68.21
64853;BME280;56050;55.558;-4.644;2023-08-24T06:34:04;101296.75;;;15.80;68.40
64853;BME280;56050;55.558;-4.644;2023-08-24T06:36:29;101293.13;;;15.90;68.41
64853;BME280;56050;55.558;-4.644;2023-08-24T06:38:55;101299.22;;;16.01;68.02
64853;BME280;56050;55.558;-4.644;2023-08-24T06:41:20;101294.38;;;16.12;68.16
64853;BME280;56050;55.558;-4.644;2023-08-24T06:43:46;101293.00;;;16.27;68.11
64853;BME280;56050;55.558;-4.644;2023-08-24T06:46:11;101296.69;;;16.40;67.78
64853;BME280;56050;55.558;-4.644;2023-08-24T06:48:37;101302.31;;;16.57;67.87
64853;BME280;56050;55.558;-4.644;2023-08-24T06:51:03;101303.22;;;16.73;67.63
64853;BME280;56050;55.558;-4.644;2023-08-24T06:53:29;101301.44;;;16.86;67.32
64853;BME280;56050;55.558;-4.644;2023-08-24T06:55:55;101303.91;;;17.00;67.32
64853;BME280;56050;55.558;-4.644;2023-08-24T06:58:21;101302.53;;;17.12;66.91
64853;BME280;56050;55.558;-4.644;2023-08-24T07:00:46;101301.50;;;17.26;66.91
64853;BME280;56050;55.558;-4.644;2023-08-24T07:03:12;101295.91;;;17.33;66.41
64853;BME280;56050;55.558;-4.644;2023-08-24T07:05:37;101299.69;;;17.39;66.16
64853;BME280;56050;55.558;-4.644;2023-08-24T07:08:03;101294.09;;;17.46;66.22
64853;BME280;56050;55.558;-4.644;2023-08-24T07:10:29;101293.97;;;17.53;66.15
64853;BME280;56050;55.558;-4.644;2023-08-24T07:12:55;101293.78;;;17.64;66.02
64853;BME280;56050;55.558;-4.644;2023-08-24T07:15:20;101298.25;;;17.74;66.01
64853;BME280;56050;55.558;-4.644;2023-08-24T07:17:45;101294.47;;;17.87;65.88
64853;BME280;56050;55.558;-4.644;2023-08-24T07:20:11;101297.31;;;18.00;65.35
64853;BME280;56050;55.558;-4.644;2023-08-24T07:22:37;101295.63;;;18.06;65.12
64853;BME280;56050;55.558;-4.644;2023-08-24T07:25:03;101301.34;;;18.11;65.10
64853;BME280;56050;55.558;-4.644;2023-08-24T07:27:31;101297.34;;;18.16;64.90
64853;BME280;56050;55.558;-4.644;2023-08-24T07:29:57;101297.09;;;18.27;64.85
64853;BME280;56050;55.558;-4.644;2023-08-24T07:32:22;101298.81;;;18.37;64.75
64853;BME280;56050;55.558;-4.644;2023-08-24T07:34:49;101295.16;;;18.43;64.38
64853;BME280;56050;55.558;-4.644;2023-08-24T07:37:14;101296.41;;;18.58;64.65
64853;BME280;56050;55.558;-4.644;2023-08-24T07:39:39;101296.03;;;18.72;64.15
64853;BME280;56050;55.558;-4.644;2023-08-24T07:42:05;101292.44;;;18.75;63.70
64853;BME280;56050;55.558;-4.644;2023-08-24T07:44:31;101296.38;;;18.74;63.77
64853;BME280;56050;55.558;-4.644;2023-08-24T07:46:56;101289.81;;;18.72;63.40
64853;BME280;56050;55.558;-4.644;2023-08-24T07:49:21;101289.97;;;18.81;63.95
64853;BME280;56050;55.558;-4.644;2023-08-24T07:51:47;101288.84;;;18.95;63.60
64853;BME280;56050;55.558;-4.644;2023-08-24T07:54:12;101286.88;;;18.95;63.07
64853;BME280;56050;55.558;-4.644;2023-08-24T07:56:38;101280.31;;;18.93;62.92
64853;BME280;56050;55.558;-4.644;2023-08-24T07:59:03;101289.59;;;18.95;62.59
64853;BME280;56050;55.558;-4.644;2023-08-24T08:01:29;101289.72;;;18.92;62.80
64853;BME280;56050;55.558;-4.644;2023-08-24T08:03:54;101289.19;;;18.97;62.75
64853;BME280;56050;55.558;-4.644;2023-08-24T08:06:20;101289.19;;;18.97;62.57
64853;BME280;56050;55.558;-4.644;2023-08-24T08:08:47;101290.72;;;18.98;62.48
64853;BME280;56050;55.558;-4.644;2023-08-24T08:11:12;101287.00;;;18.92;62.10
64853;BME280;56050;55.558;-4.644;2023-08-24T08:13:38;101284.50;;;18.81;62.22
64853;BME280;56050;55.558;-4.644;2023-08-24T08:16:06;101282.03;;;18.70;62.33
64853;BME280;56050;55.558;-4.644;2023-08-24T08:18:33;101281.88;;;18.61;62.27
64853;BME280;56050;55.558;-4.644;2023-08-24T08:20:59;101276.16;;;18.56;62.51
64853;BME280;56050;55.558;-4.644;2023-08-24T08:23:25;101271.59;;;18.53;62.39
64853;BME280;56050;55.558;-4.644;2023-08-24T08:25:50;101274.22;;;18.56;62.46
64853;BME280;56050;55.558;-4.644;2023-08-24T08:28:16;101268.41;;;18.70;62.64
64853;BME280;56050;55.558;-4.644;2023-08-24T08:30:43;101269.91;;;18.88;62.69
64853;BME280;56050;55.558;-4.644;2023-08-24T08:33:08;101264.94;;;18.99;62.12
64853;BME280;56050;55.558;-4.644;2023-08-24T08:35:34;101253.16;;;19.02;62.14
64853;BME280;56050;55.558;-4.644;2023-08-24T08:37:59;101271.06;;;19.03;61.75
64853;BME280;56050;55.558;-4.644;2023-08-24T08:40:25;101266.13;;;18.98;61.96
64853;BME280;56050;55.558;-4.644;2023-08-24T08:42:58;101261.19;;;18.93;62.00
64853;BME280;56050;55.558;-4.644;2023-08-24T08:45:28;101250.28;;;18.93;61.90
64853;BME280;56050;55.558;-4.644;2023-08-24T08:47:58;101243.50;;;18.97;62.13
64853;BME280;56050;55.558;-4.644;2023-08-24T08:50:24;101251.22;;;19.02;62.14
64853;BME280;56050;55.558;-4.644;2023-08-24T08:52:50;101252.06;;;18.99;61.94
64853;BME280;56050;55.558;-4.644;2023-08-24T08:55:15;101248.56;;;18.99;61.83
64853;BME280;56050;55.558;-4.644;2023-08-24T08:57:41;101246.69;;;18.96;61.74
64853;BME280;56050;55.558;-4.644;2023-08-24T09:00:10;101249.50;;;18.92;61.36
64853;BME280;56050;55.558;-4.644;2023-08-24T09:02:38;101244.66;;;18.84;61.63
64853;BME280;56050;55.558;-4.644;2023-08-24T09:05:04;101246.72;;;18.80;61.62
64853;BME280;56050;55.558;-4.644;2023-08-24T09:07:30;101237.69;;;18.83;62.05
64853;BME280;56050;55.558;-4.644;2023-08-24T09:09:56;101247.63;;;18.89;61.72
64853;BME280;56050;55.558;-4.644;2023-08-24T09:12:21;101255.31;;;18.94;61.92
64853;BME280;56050;55.558;-4.644;2023-08-24T09:14:46;101252.47;;;18.98;61.49
64853;BME280;56050;55.558;-4.644;2023-08-24T09:17:20;101247.88;;;18.95;61.57
64853;BME280;56050;55.558;-4.644;2023-08-24T09:19:46;101243.44;;;19.01;61.62
64853;BME280;56050;55.558;-4.644;2023-08-24T09:22:11;101242.16;;;19.05;61.11
64853;BME280;56050;55.558;-4.644;2023-08-24T09:24:36;101233.03;;;18.96;60.91
64853;BME280;56050;55.558;-4.644;2023-08-24T09:27:16;101234.75;;;18.90;61.10
64853;BME280;56050;55.558;-4.644;2023-08-24T09:29:51;101224.34;;;18.85;60.85
64853;BME280;56050;55.558;-4.644;2023-08-24T09:32:30;101224.19;;;18.75;60.03
64853;BME280;56050;55.558;-4.644;2023-08-24T09:35:03;101221.50;;;18.59;60.43
64853;BME280;56050;55.558;-4.644;2023-08-24T09:37:34;101222.34;;;18.56;60.89
64853;BME280;56050;55.558;-4.644;2023-08-24T09:40:04;101219.03;;;18.65;61.04
64853;BME280;56050;55.558;-4.644;2023-08-24T09:42:40;101223.72;;;18.64;60.87
64853;BME280;56050;55.558;-4.644;2023-08-24T09:45:08;101220.13;;;18.67;60.52
64853;BME280;56050;55.558;-4.644;2023-08-24T09:47:35;101223.63;;;18.68;60.65
64853;BME280;56050;55.558;-4.644;2023-08-24T09:50:01;101230.44;;;18.76;60.96
64853;BME280;56050;55.558;-4.644;2023-08-24T09:52:34;101236.56;;;18.80;60.68
64853;BME280;56050;55.558;-4.644;2023-08-24T09:55:04;101232.91;;;18.70;59.81
64853;BME280;56050;55.558;-4.644;2023-08-24T09:57:39;101230.22;;;18.54;59.93
64853;BME280;56050;55.558;-4.644;2023-08-24T10:00:09;101224.06;;;18.50;60.14
64853;BME280;56050;55.558;-4.644;2023-08-24T10:02:48;101223.72;;;18.48;60.18
64853;BME280;56050;55.558;-4.644;2023-08-24T10:05:17;101218.00;;;18.43;60.25
64853;BME280;56050;55.558;-4.644;2023-08-24T10:07:49;101218.84;;;18.40;60.20
64853;BME280;56050;55.558;-4.644;2023-08-24T10:10:19;101214.94;;;18.41;60.24
64853;BME280;56050;55.558;-4.644;2023-08-24T10:12:50;101210.25;;;18.41;59.99
64853;BME280;56050;55.558;-4.644;2023-08-24T10:15:17;101220.38;;;18.41;60.34
64853;BME280;56050;55.558;-4.644;2023-08-24T10:17:44;101221.56;;;18.40;60.13
64853;BME280;56050;55.558;-4.644;2023-08-24T10:20:10;101223.72;;;18.48;60.38
64853;BME280;56050;55.558;-4.644;2023-08-24T10:22:37;101222.88;;;18.51;60.11
64853;BME280;56050;55.558;-4.644;2023-08-24T10:25:04;101226.50;;;18.45;60.00
64853;BME280;56050;55.558;-4.644;2023-08-24T10:27:30;101221.25;;;18.38;59.82
64853;BME280;56050;55.558;-4.644;2023-08-24T10:29:56;101222.53;;;18.33;59.96
64853;BME280;56050;55.558;-4.644;2023-08-24T10:32:24;101221.44;;;18.31;59.91
64853;BME280;56050;55.558;-4.644;2023-08-24T10:34:51;101214.44;;;18.30;60.00
64853;BME280;56050;55.558;-4.644;2023-08-24T10:37:17;101212.22;;;18.25;59.90
64853;BME280;56050;55.558;-4.644;2023-08-24T10:39:49;101215.09;;;18.17;60.08
64853;BME280;56050;55.558;-4.644;2023-08-24T10:42:15;101207.44;;;18.12;60.07
64853;BME280;56050;55.558;-4.644;2023-08-24T10:44:44;101222.69;;;18.10;60.14
64853;BME280;56050;55.558;-4.644;2023-08-24T10:47:20;101214.25;;;18.04;59.99
64853;BME280;56050;55.558;-4.644;2023-08-24T10:50:06;101211.09;;;18.06;60.36
64853;BME280;56050;55.558;-4.644;2023-08-24T10:52:33;101209.38;;;18.12;60.06
64853;BME280;56050;55.558;-4.644;2023-08-24T10:55:04;101212.88;;;18.12;60.09
64853;BME280;56050;55.558;-4.644;2023-08-24T10:57:38;101216.31;;;18.16;60.34
64853;BME280;56050;55.558;-4.644;2023-08-24T11:03:04;101211.25;;;18.31;60.35
64853;BME280;56050;55.558;-4.644;2023-08-24T11:05:26;101202.91;;;18.38;60.02
64853;BME280;56050;55.558;-4.644;2023-08-24T11:10:45;101187.22;;;18.26;59.22
64853;BME280;56050;55.558;-4.644;2023-08-24T11:13:17;101188.50;;;18.22;59.40
64853;BME280;56050;55.558;-4.644;2023-08-24T11:15:49;101193.28;;;18.17;59.46
64853;BME280;56050;55.558;-4.644;2023-08-24T11:18:26;101190.56;;;18.17;59.95
64853;BME280;56050;55.558;-4.644;2023-08-24T11:21:03;101193.63;;;18.19;59.89
64853;BME280;56050;55.558;-4.644;2023-08-24T11:23:29;101199.69;;;18.27;59.73
64853;BME280;56050;55.558;-4.644;2023-08-24T11:25:56;101201.13;;;18.32;59.97
64853;BME280;56050;55.558;-4.644;2023-08-24T11:28:24;101202.59;;;18.36;59.80
64853;BME280;56050;55.558;-4.644;2023-08-24T11:30:51;101194.72;;;18.38;59.69
64853;BME280;56050;55.558;-4.644;2023-08-24T11:33:17;101189.19;;;18.42;59.83
64853;BME280;56050;55.558;-4.644;2023-08-24T11:35:51;101192.59;;;18.46;59.50
64853;BME280;56050;55.558;-4.644;2023-08-24T11:38:18;101190.28;;;18.44;59.40
64853;BME280;56050;55.558;-4.644;2023-08-24T11:40:43;101183.63;;;18.45;59.61
64853;BME280;56050;55.558;-4.644;2023-08-24T11:43:09;101177.34;;;18.48;59.68
64853;BME280;56050;55.558;-4.644;2023-08-24T11:45:35;101191.25;;;18.54;59.59
64853;BME280;56050;55.558;-4.644;2023-08-24T11:48:03;101190.72;;;18.59;59.55
64853;BME280;56050;55.558;-4.644;2023-08-24T11:50:30;101192.25;;;18.60;59.52
64853;BME280;56050;55.558;-4.644;2023-08-24T11:52:56;101186.03;;;18.59;58.99
64853;BME280;56050;55.558;-4.644;2023-08-24T11:55:22;101191.94;;;18.58;59.26
64853;BME280;56050;55.558;-4.644;2023-08-24T11:57:48;101191.81;;;18.61;59.28
64853;BME280;56050;55.558;-4.644;2023-08-24T12:00:13;101184.75;;;18.64;59.30
64853;BME280;56050;55.558;-4.644;2023-08-24T12:02:42;101191.97;;;18.70;59.37
64853;BME280;56050;55.558;-4.644;2023-08-24T12:05:19;101189.06;;;18.77;59.47
64853;BME280;56050;55.558;-4.644;2023-08-24T12:07:45;101177.19;;;18.84;59.20
64853;BME280;56050;55.558;-4.644;2023-08-24T12:10:12;101179.03;;;18.87;59.15
64853;BME280;56050;55.558;-4.644;2023-08-24T12:12:37;101176.22;;;18.91;59.09
64853;BME280;56050;55.558;-4.644;2023-08-24T12:15:03;101180.06;;;18.93;59.11
64853;BME280;56050;55.558;-4.644;2023-08-24T12:17:29;101178.44;;;18.96;59.05
64853;BME280;56050;55.558;-4.644;2023-08-24T12:20:01;101169.78;;;18.97;58.91
64853;BME280;56050;55.558;-4.644;2023-08-24T12:22:31;101173.44;;;19.07;59.10
64853;BME280;56050;55.558;-4.644;2023-08-24T12:24:57;101176.72;;;19.14;59.00
64853;BME280;56050;55.558;-4.644;2023-08-24T12:27:23;101170.41;;;19.17;58.69
64853;BME280;56050;55.558;-4.644;2023-08-24T12:29:50;101170.31;;;19.21;58.84
64853;BME280;56050;55.558;-4.644;2023-08-24T12:32:16;101172.81;;;19.28;58.76
64853;BME280;56050;55.558;-4.644;2023-08-24T12:34:45;101166.31;;;19.38;58.48
64853;BME280;56050;55.558;-4.644;2023-08-24T12:37:11;101171.66;;;19.42;58.46
64853;BME280;56050;55.558;-4.644;2023-08-24T12:39:37;101168.59;;;19.40;58.04
64853;BME280;56050;55.558;-4.644;2023-08-24T12:42:03;101168.34;;;19.34;58.18
64853;BME280;56050;55.558;-4.644;2023-08-24T12:44:29;101156.44;;;19.28;57.57
64853;BME280;56050;55.558;-4.644;2023-08-24T12:46:54;101160.03;;;19.25;57.68
64853;BME280;56050;55.558;-4.644;2023-08-24T12:49:19;101154.31;;;19.19;57.50
64853;BME280;56050;55.558;-4.644;2023-08-24T12:51:45;101148.13;;;19.19;58.05